Ludlam, Florida
Current Conditions -  °F | °C
As of 11:53 AM on Friday 24 Oct 2014 (Local Time) from KMIA Reporting Station
Light Rain Light Rain  
Wind Chill: 78°   Ceiling: 3300
Heat Index: 80°   Visibility: 10mi
Dew Point: 71°   Wind: 15mph
Humidity: 79%   Direction: 40°NE
Pressure: 29.88"   Gusts: 28mph
Location:  25.7539°N, 80.2512°W
Report Text: KMIA 241553Z 04013G24KT 10SM -RA SCT021 BKN033 OVC048 26/22 A2988 RMK AO2 SLP117 P0001 T02560217
Loading
Personal Weather Stations






























Interactive Weather Map
Tropical Storm Tracking
New forecast layout! Learn more

10-Day Weather Forecast

Advertisements
Track Severe Weather on mobile